Time;durP1;ratioP1;P1;durP2;ratioP2;P2;SDS_P1;SDS_P2;PMS_P1;PMS_P2;Temp;Humidity;BMP_temperature;BMP_pressure;BME280_temperature;BME280_humidity;BME280_pressure;Samples;Min_cycle;Max_cycle;Signal;HPM_P1;HPM_P2
2022/03/29 00:00:59;;;;;;;22.23;13.88;;;15.30;68.40;;;;;;5112064;28;20024;-65
2022/03/29 00:03:26;;;;;;;18.35;12.85;;;15.20;69.00;;;;;;5094193;28;20024;-65
2022/03/29 00:05:51;;;;;;;28.15;14.40;;;15.30;69.70;;;;;;5093092;28;20027;-65
2022/03/29 00:08:17;;;;;;;30.60;14.52;;;15.20;70.20;;;;;;5112324;28;20035;-64
2022/03/29 00:10:44;;;;;;;26.92;15.68;;;15.20;70.90;;;;;;5112279;28;20524;-64
2022/03/29 00:13:10;;;;;;;32.03;15.68;;;15.20;71.10;;;;;;5111252;28;20144;-66
2022/03/29 00:15:36;;;;;;;25.73;15.85;;;15.20;71.60;;;;;;5093841;28;20074;-65
2022/03/29 00:18:02;;;;;;;25.92;16.15;;;15.20;72.30;;;;;;5111505;28;20023;-65
2022/03/29 00:20:28;;;;;;;28.52;16.27;;;15.20;72.60;;;;;;5112068;28;20020;-65
2022/03/29 00:22:54;;;;;;;26.98;15.65;;;15.20;73.20;;;;;;5093125;28;20024;-65
2022/03/29 00:25:20;;;;;;;25.90;16.75;;;15.20;73.60;;;;;;5110371;28;20035;-67
2022/03/29 00:27:45;;;;;;;26.50;15.55;;;15.10;73.70;;;;;;5111865;28;20015;-65
2022/03/29 00:30:12;;;;;;;28.25;15.30;;;15.10;73.80;;;;;;5111381;28;20032;-66
2022/03/29 00:32:41;;;;;;;27.38;14.88;;;15.10;74.00;;;;;;5112277;28;20102;-66
2022/03/29 00:35:10;;;;;;;29.63;17.75;;;15.00;74.40;;;;;;5093073;28;20023;-65
2022/03/29 00:37:39;;;;;;;30.50;17.73;;;15.00;74.70;;;;;;5113631;28;20038;-65
2022/03/29 00:40:06;;;;;;;24.70;16.17;;;15.00;75.20;;;;;;5111418;28;20031;-65
2022/03/29 00:42:32;;;;;;;26.98;16.48;;;15.00;75.30;;;;;;5112471;28;20072;-65
2022/03/29 00:44:57;;;;;;;23.63;14.55;;;14.90;75.40;;;;;;5111533;28;20124;-65
2022/03/29 00:47:24;;;;;;;35.85;19.08;;;14.80;75.80;;;;;;5093727;28;20371;-65
2022/03/29 00:49:50;;;;;;;27.65;17.15;;;14.80;76.40;;;;;;5093658;28;20460;-74
2022/03/29 00:52:18;;;;;;;27.73;17.25;;;14.90;76.20;;;;;;5093722;28;20032;-66
2022/03/29 00:54:44;;;;;;;25.58;17.17;;;14.90;76.60;;;;;;5093612;28;20130;-65
2022/03/29 00:57:11;;;;;;;31.33;16.13;;;14.90;76.60;;;;;;5092851;28;20604;-67
2022/03/29 00:59:39;;;;;;;27.83;16.60;;;14.90;76.70;;;;;;5111677;28;20090;-65
2022/03/29 01:02:05;;;;;;;25.45;17.52;;;14.80;77.00;;;;;;5111505;28;20098;-65
2022/03/29 01:04:31;;;;;;;31.35;18.33;;;14.70;77.60;;;;;;5093941;28;20039;-65
2022/03/29 01:07:00;;;;;;;27.98;17.00;;;14.60;77.90;;;;;;5111072;28;20457;-66
2022/03/29 01:09:27;;;;;;;31.15;18.23;;;14.60;78.00;;;;;;5111445;28;20080;-65
2022/03/29 01:11:53;;;;;;;29.33;18.48;;;14.60;78.40;;;;;;5093312;28;20110;-65
2022/03/29 01:14:24;;;;;;;29.58;17.67;;;14.60;78.40;;;;;;5111575;28;20066;-65
2022/03/29 01:19:38;;;;;;;30.58;18.65;;;14.50;78.80;;;;;;5113293;28;20054;-65
2022/03/29 01:22:07;;;;;;;32.35;17.48;;;14.60;78.60;;;;;;5110858;28;20391;-65
2022/03/29 01:24:40;;;;;;;37.75;17.17;;;14.60;78.90;;;;;;5111528;28;20027;-66
2022/03/29 01:27:07;;;;;;;27.75;18.10;;;14.50;78.80;;;;;;5093609;28;20469;-65
2022/03/29 01:29:36;;;;;;;28.20;18.08;;;14.50;79.20;;;;;;5093710;28;20024;-70
2022/03/29 01:32:05;;;;;;;31.90;17.98;;;14.50;79.20;;;;;;5111186;28;20035;-65
2022/03/29 01:34:34;;;;;;;27.75;17.35;;;14.50;79.40;;;;;;5111434;28;20043;-64
2022/03/29 01:37:00;;;;;;;36.20;18.15;;;14.50;79.80;;;;;;5111126;28;20059;-66
2022/03/29 01:39:26;;;;;;;30.60;18.35;;;14.40;80.00;;;;;;5093355;28;20414;-65
2022/03/29 01:41:52;;;;;;;33.47;18.45;;;14.40;80.00;;;;;;5093306;28;20061;-66
2022/03/29 01:44:17;;;;;;;33.47;20.08;;;14.30;80.40;;;;;;5111061;28;20069;-65
2022/03/29 01:46:44;;;;;;;31.95;19.33;;;14.30;80.90;;;;;;5093257;28;20540;-65
2022/03/29 01:49:10;;;;;;;30.50;18.85;;;14.20;81.30;;;;;;5092493;28;20020;-67
2022/03/29 01:51:36;;;;;;;30.05;17.83;;;14.30;81.60;;;;;;5111871;28;20039;-65
2022/03/29 01:54:02;;;;;;;37.55;18.35;;;14.20;82.00;;;;;;5092672;28;20113;-65
2022/03/29 01:56:36;;;;;;;31.25;18.98;;;14.20;82.20;;;;;;5092712;28;20489;-65
2022/03/29 01:59:14;;;;;;;30.55;19.88;;;14.20;82.50;;;;;;5092739;28;20023;-65
2022/03/29 02:01:40;;;;;;;30.48;20.33;;;14.20;83.50;;;;;;5111468;28;20114;-65
2022/03/29 02:04:06;;;;;;;27.55;18.65;;;14.10;83.40;;;;;;5110860;28;20058;-66
2022/03/29 02:06:32;;;;;;;31.35;21.25;;;14.10;83.60;;;;;;5092357;28;20063;-65
2022/03/29 02:08:59;;;;;;;30.27;19.50;;;14.10;83.80;;;;;;5111599;28;20080;-66
2022/03/29 02:11:26;;;;;;;35.28;21.55;;;14.10;84.00;;;;;;5096190;28;20051;-66
2022/03/29 02:13:53;;;;;;;34.53;19.02;;;14.10;84.40;;;;;;5096537;28;20035;-66
2022/03/29 02:16:20;;;;;;;41.75;19.77;;;14.10;84.80;;;;;;5114818;28;20039;-66
2022/03/29 02:18:46;;;;;;;32.85;21.10;;;14.00;84.90;;;;;;5096567;28;20457;-64
2022/03/29 02:21:15;;;;;;;34.85;20.23;;;13.90;85.60;;;;;;5113749;28;20035;-65
2022/03/29 02:23:41;;;;;;;29.63;19.60;;;13.90;85.90;;;;;;5096300;28;20023;-65
2022/03/29 02:26:07;;;;;;;29.00;19.13;;;13.90;86.20;;;;;;5113903;28;20039;-67
2022/03/29 02:28:34;;;;;;;29.92;19.10;;;13.80;86.40;;;;;;5114789;28;20023;-68
2022/03/29 02:30:59;;;;;;;32.47;21.15;;;13.90;86.10;;;;;;5095906;28;20050;-67
2022/03/29 02:33:25;;;;;;;33.53;20.33;;;13.80;86.60;;;;;;5096904;28;20457;-66
2022/03/29 02:35:52;;;;;;;34.53;20.38;;;13.80;87.00;;;;;;5097144;28;20034;-67
2022/03/29 02:38:20;;;;;;;32.70;21.40;;;13.80;87.10;;;;;;5114339;28;20363;-65
2022/03/29 02:40:46;;;;;;;34.33;20.77;;;13.70;87.50;;;;;;5114632;28;20022;-65
2022/03/29 02:43:12;;;;;;;31.15;20.05;;;13.60;88.10;;;;;;5113855;28;20038;-65
2022/03/29 02:45:38;;;;;;;37.03;20.90;;;13.50;88.70;;;;;;5092253;28;20137;-66
2022/03/29 02:48:04;;;;;;;33.95;20.95;;;13.50;89.10;;;;;;5091745;28;20028;-65
2022/03/29 02:50:30;;;;;;;32.95;20.20;;;13.50;89.20;;;;;;5092489;28;20028;-65
2022/03/29 02:52:58;;;;;;;33.38;20.27;;;13.50;89.90;;;;;;5092586;28;20453;-66
2022/03/29 02:55:27;;;;;;;32.72;21.17;;;13.60;89.30;;;;;;5092854;28;20066;-65
2022/03/29 02:57:53;;;;;;;35.03;20.27;;;13.60;89.30;;;;;;5093810;28;20519;-65
2022/03/29 03:00:19;;;;;;;33.33;20.90;;;13.60;89.30;;;;;;5091592;28;20401;-66
2022/03/29 03:02:48;;;;;;;32.17;20.88;;;13.70;89.60;;;;;;5093632;28;20150;-66
2022/03/29 03:05:17;;;;;;;32.65;21.80;;;13.60;89.90;;;;;;5092615;28;20032;-64
2022/03/29 03:07:44;;;;;;;36.80;22.33;;;13.50;90.10;;;;;;5091960;28;20047;-65
2022/03/29 03:10:11;;;;;;;34.15;20.45;;;13.40;90.40;;;;;;5091621;28;20024;-65
2022/03/29 03:12:39;;;;;;;30.70;20.75;;;13.30;90.60;;;;;;5093062;28;20338;-65
2022/03/29 03:15:08;;;;;;;34.53;21.58;;;13.40;90.60;;;;;;5092577;28;20028;-65
2022/03/29 03:17:34;;;;;;;31.77;19.70;;;13.40;90.80;;;;;;5091971;28;20054;-65
2022/03/29 03:20:01;;;;;;;35.08;20.67;;;13.30;91.00;;;;;;5091432;28;20488;-73
2022/03/29 03:22:28;;;;;;;34.70;20.75;;;13.20;91.30;;;;;;5093018;28;20461;-65
2022/03/29 03:24:54;;;;;;;30.48;20.98;;;13.20;91.50;;;;;;5091799;28;20115;-65
2022/03/29 03:27:21;;;;;;;30.60;21.23;;;13.20;91.70;;;;;;5092241;28;20204;-65
2022/03/29 03:29:47;;;;;;;34.40;19.85;;;13.30;91.70;;;;;;5091867;28;20433;-65
2022/03/29 03:32:14;;;;;;;35.15;21.35;;;13.20;91.80;;;;;;5092558;28;20024;-65
2022/03/29 03:34:41;;;;;;;32.70;20.70;;;13.30;91.80;;;;;;5093017;28;20063;-65
2022/03/29 03:37:08;;;;;;;38.58;22.52;;;13.40;91.70;;;;;;5092400;28;20044;-65
2022/03/29 03:39:36;;;;;;;37.17;22.30;;;13.30;91.80;;;;;;5092977;28;20354;-64
2022/03/29 03:42:09;;;;;;;36.53;22.38;;;13.30;92.00;;;;;;5092727;28;20437;-66
2022/03/29 03:44:38;;;;;;;35.60;22.33;;;13.40;92.00;;;;;;5091580;28;20086;-66
2022/03/29 03:47:10;;;;;;;38.35;22.40;;;13.30;92.20;;;;;;5092039;28;20142;-65
2022/03/29 03:49:40;;;;;;;39.15;22.48;;;13.30;92.40;;;;;;5092892;28;20095;-65
2022/03/29 03:52:07;;;;;;;34.22;22.20;;;13.30;92.50;;;;;;5091791;28;20081;-65
2022/03/29 03:54:34;;;;;;;37.50;21.33;;;13.30;92.60;;;;;;5091119;28;20020;-65
2022/03/29 03:57:00;;;;;;;34.95;22.33;;;13.20;92.70;;;;;;5090695;28;20028;-65
2022/03/29 03:59:26;;;;;;;34.22;20.88;;;13.10;93.10;;;;;;5091846;28;20031;-65
2022/03/29 04:01:53;;;;;;;36.42;22.92;;;13.10;93.20;;;;;;5091925;28;20103;-65
2022/03/29 04:04:19;;;;;;;39.60;23.80;;;13.00;93.50;;;;;;5090016;28;20070;-64
2022/03/29 04:06:44;;;;;;;31.15;21.13;;;13.00;93.70;;;;;;5090709;28;20032;-66
2022/03/29 04:09:10;;;;;;;38.83;20.75;;;13.00;93.80;;;;;;5090397;28;20031;-65
2022/03/29 04:11:37;;;;;;;34.80;20.90;;;13.00;93.90;;;;;;5092425;28;20028;-68
2022/03/29 04:14:03;;;;;;;38.95;22.30;;;12.80;94.30;;;;;;5091948;28;20032;-66
2022/03/29 04:16:29;;;;;;;33.15;21.50;;;12.80;94.40;;;;;;5091715;28;20035;-65
2022/03/29 04:18:55;;;;;;;36.05;20.60;;;12.80;94.50;;;;;;5090766;28;20031;-66
2022/03/29 04:21:21;;;;;;;31.83;20.25;;;13.00;94.40;;;;;;5089790;28;20056;-65
2022/03/29 04:23:47;;;;;;;30.30;19.80;;;12.90;94.30;;;;;;5093721;28;20369;-67
2022/03/29 04:26:13;;;;;;;37.83;21.60;;;12.90;94.20;;;;;;5089418;28;20381;-66
2022/03/29 04:28:38;;;;;;;37.17;20.25;;;13.00;94.10;;;;;;5091006;28;20040;-65
2022/03/29 04:31:04;;;;;;;35.33;20.10;;;13.10;94.10;;;;;;5090722;28;20103;-65
2022/03/29 04:33:30;;;;;;;33.20;20.90;;;13.10;94.10;;;;;;5090006;28;20514;-65
2022/03/29 04:35:56;;;;;;;31.08;19.70;;;13.00;94.20;;;;;;5089940;28;20114;-65
2022/03/29 04:38:23;;;;;;;31.52;20.23;;;13.10;94.20;;;;;;5089340;28;20020;-66
2022/03/29 04:40:49;;;;;;;35.40;21.05;;;13.00;94.40;;;;;;5091532;28;20098;-65
2022/03/29 04:43:15;;;;;;;34.92;20.90;;;13.00;94.50;;;;;;5090524;28;20172;-65
2022/03/29 04:45:41;;;;;;;38.95;22.65;;;13.00;94.70;;;;;;5089689;28;20051;-65
2022/03/29 04:48:06;;;;;;;36.25;21.17;;;12.90;94.90;;;;;;5090599;28;20212;-71
2022/03/29 04:50:32;;;;;;;35.70;21.42;;;12.70;95.10;;;;;;5091295;28;20085;-65
2022/03/29 04:52:58;;;;;;;35.90;22.10;;;12.80;95.10;;;;;;5089554;28;20076;-65
2022/03/29 04:55:24;;;;;;;37.63;22.70;;;12.80;95.20;;;;;;5088942;28;20123;-65
2022/03/29 04:57:50;;;;;;;35.53;20.30;;;12.70;95.20;;;;;;5089812;28;20028;-65
2022/03/29 05:00:20;;;;;;;30.33;18.35;;;12.70;95.10;;;;;;5090720;28;20032;-66
2022/03/29 05:02:45;;;;;;;31.33;18.38;;;12.80;94.70;;;;;;5091168;28;20110;-64
2022/03/29 05:05:12;;;;;;;36.05;20.85;;;12.70;94.80;;;;;;5090614;28;20119;-65
2022/03/29 05:07:38;;;;;;;33.95;19.63;;;12.80;94.50;;;;;;5089873;28;20369;-65
2022/03/29 05:10:04;;;;;;;29.60;17.05;;;12.80;94.30;;;;;;5090883;28;20035;-65
2022/03/29 05:12:37;;;;;;;34.13;18.20;;;12.70;94.20;;;;;;5090600;28;20063;-65
2022/03/29 05:15:03;;;;;;;35.63;18.95;;;12.70;94.30;;;;;;5089555;28;20039;-64
2022/03/29 05:17:31;;;;;;;31.58;17.85;;;12.70;94.60;;;;;;5090020;28;20086;-65
2022/03/29 05:19:56;;;;;;;36.05;19.95;;;12.60;94.50;;;;;;5090866;28;20488;-65
2022/03/29 05:22:22;;;;;;;28.85;17.65;;;12.50;94.90;;;;;;5090218;28;20025;-65
2022/03/29 05:24:48;;;;;;;30.13;18.60;;;12.60;94.80;;;;;;5089572;28;20147;-65
2022/03/29 05:27:13;;;;;;;29.40;17.90;;;12.60;94.80;;;;;;5090636;28;20032;-65
2022/03/29 05:29:39;;;;;;;30.13;18.23;;;12.40;95.00;;;;;;5089266;28;20035;-65
2022/03/29 05:32:05;;;;;;;31.85;19.02;;;12.40;95.20;;;;;;5089320;28;20103;-65
2022/03/29 05:34:31;;;;;;;35.00;18.42;;;12.50;95.10;;;;;;5089832;28;20032;-65
2022/03/29 05:36:57;;;;;;;33.05;17.90;;;12.50;95.20;;;;;;5090820;28;20043;-65
2022/03/29 05:39:22;;;;;;;33.13;17.83;;;12.60;95.10;;;;;;5088720;28;20020;-66
2022/03/29 05:41:48;;;;;;;35.70;19.40;;;12.60;95.10;;;;;;5090362;28;20020;-65
2022/03/29 05:44:13;;;;;;;34.88;17.88;;;12.60;95.00;;;;;;5094401;28;20456;-68
2022/03/29 05:49:24;;;;;;;36.42;19.00;;;12.60;95.30;;;;;;5113718;28;20117;-64
2022/03/29 05:51:52;;;;;;;36.55;18.40;;;12.60;95.40;;;;;;5114402;28;20423;-65
2022/03/29 05:54:18;;;;;;;28.15;17.73;;;12.70;95.40;;;;;;5095486;28;20035;-65
2022/03/29 05:56:44;;;;;;;32.75;19.92;;;12.40;95.70;;;;;;5096173;28;20104;-65
2022/03/29 05:59:10;;;;;;;34.47;19.58;;;12.50;96.00;;;;;;5095928;28;20023;-65
2022/03/29 06:01:38;;;;;;;41.05;21.50;;;12.50;95.90;;;;;;5095835;28;20054;-66
2022/03/29 06:04:06;;;;;;;36.70;20.17;;;12.50;96.80;;;;;;5096177;28;20379;-65
2022/03/29 06:06:33;;;;;;;34.55;19.15;;;12.50;96.60;;;;;;5095297;28;20411;-65
2022/03/29 06:09:00;;;;;;;41.53;20.85;;;12.60;96.70;;;;;;5113106;28;20088;-64
2022/03/29 06:11:25;;;;;;;38.22;21.60;;;12.50;96.80;;;;;;5113096;28;20477;-68
2022/03/29 06:13:51;;;;;;;32.13;20.05;;;12.60;97.00;;;;;;5114451;28;20046;-67
2022/03/29 06:16:17;;;;;;;36.00;21.67;;;12.60;97.00;;;;;;5112874;28;20054;-69
2022/03/29 06:18:42;;;;;;;45.92;22.92;;;12.60;97.20;;;;;;5114101;28;20020;-64
2022/03/29 06:21:08;;;;;;;33.35;21.75;;;12.70;97.10;;;;;;5113631;28;20418;-64
2022/03/29 06:23:34;;;;;;;43.38;22.20;;;12.80;96.80;;;;;;5113500;28;20019;-65
2022/03/29 06:26:00;;;;;;;61.17;25.17;;;12.80;96.90;;;;;;5094791;28;20047;-64
2022/03/29 06:28:26;;;;;;;51.47;22.42;;;12.80;97.00;;;;;;5094296;28;20023;-65
2022/03/29 06:30:51;;;;;;;40.92;20.13;;;12.90;96.90;;;;;;5113906;28;20046;-65
2022/03/29 06:33:17;;;;;;;40.15;21.88;;;12.90;96.80;;;;;;5082371;28;20038;-67
2022/03/29 06:35:43;;;;;;;36.08;21.40;;;12.90;96.70;;;;;;5093367;28;20043;-66
2022/03/29 06:38:08;;;;;;;38.75;22.35;;;13.00;96.50;;;;;;5113909;28;20468;-65
2022/03/29 06:40:34;;;;;;;30.98;18.58;;;13.00;96.20;;;;;;5112853;28;20093;-67
2022/03/29 06:43:01;;;;;;;31.73;18.50;;;12.90;98.10;;;;;;5094809;28;20023;-65
2022/03/29 06:45:27;;;;;;;36.28;20.10;;;13.10;96.70;;;;;;5077117;28;20052;-66
2022/03/29 06:47:53;;;;;;;33.70;20.85;;;13.20;96.10;;;;;;5070939;28;20362;-66
2022/03/29 06:50:19;;;;;;;34.08;19.08;;;13.20;95.90;;;;;;5085257;28;20021;-65
2022/03/29 06:52:46;;;;;;;36.65;20.90;;;13.20;95.60;;;;;;5070168;28;20036;-66
2022/03/29 06:55:16;;;;;;;42.75;21.67;;;13.10;95.50;;;;;;5070927;28;20060;-66
2022/03/29 06:57:43;;;;;;;41.88;20.30;;;13.20;95.50;;;;;;5070722;28;20092;-65
2022/03/29 07:00:10;;;;;;;51.38;21.55;;;13.20;95.50;;;;;;5071819;28;20032;-66
2022/03/29 07:02:36;;;;;;;36.35;19.60;;;13.30;95.30;;;;;;5069656;28;20371;-65
2022/03/29 07:05:03;;;;;;;28.00;17.95;;;13.40;95.10;;;;;;5071870;28;20418;-64
2022/03/29 07:07:29;;;;;;;34.25;19.05;;;13.40;95.00;;;;;;5066466;28;20058;-65
2022/03/29 07:12:50;;;;;;;28.92;18.30;;;13.50;94.60;;;;;;5068331;28;20433;-65
2022/03/29 07:15:16;;;;;;;32.90;16.50;;;13.40;94.60;;;;;;5071438;28;20086;-65
2022/03/29 07:17:43;;;;;;;27.23;16.55;;;13.50;94.60;;;;;;5072303;28;20125;-70
2022/03/29 07:20:09;;;;;;;30.73;18.13;;;13.90;96.10;;;;;;5070101;28;20131;-68
2022/03/29 07:22:35;;;;;;;30.77;18.77;;;14.00;94.20;;;;;;5069850;28;20090;-65
2022/03/29 07:25:01;;;;;;;30.50;18.38;;;14.00;93.50;;;;;;5069539;28;20028;-66
2022/03/29 07:27:27;;;;;;;29.60;17.85;;;13.90;93.60;;;;;;5070032;28;20025;-66
2022/03/29 07:29:53;;;;;;;22.85;15.55;;;13.90;93.50;;;;;;5071090;28;20025;-65
2022/03/29 07:32:19;;;;;;;30.17;16.23;;;14.20;95.80;;;;;;5067704;28;20508;-67
2022/03/29 07:34:44;;;;;;;41.67;17.70;;;14.50;93.70;;;;;;5070759;28;20024;-67
2022/03/29 07:37:10;;;;;;;35.65;18.20;;;14.40;92.60;;;;;;5070505;28;20057;-66
2022/03/29 07:39:36;;;;;;;31.55;15.60;;;14.30;92.70;;;;;;5069308;28;20094;-64
2022/03/29 07:42:02;;;;;;;30.70;16.98;;;14.20;92.70;;;;;;5071724;28;20093;-66
2022/03/29 07:44:28;;;;;;;26.95;16.17;;;14.20;92.60;;;;;;5076016;28;20442;-65
2022/03/29 07:46:54;;;;;;;23.92;16.52;;;14.20;92.70;;;;;;5075887;28;20068;-65
2022/03/29 07:49:19;;;;;;;26.63;16.10;;;14.20;92.80;;;;;;5071723;28;20033;-67
2022/03/29 07:51:45;;;;;;;30.77;16.83;;;14.30;92.50;;;;;;5070745;28;20115;-66
2022/03/29 07:54:10;;;;;;;28.38;16.10;;;14.40;92.60;;;;;;5070613;28;20127;-67
2022/03/29 07:56:36;;;;;;;27.67;16.67;;;14.20;92.60;;;;;;5070187;28;20033;-66
2022/03/29 07:59:02;;;;;;;25.30;16.15;;;14.30;92.70;;;;;;5087513;28;20048;-72
2022/03/29 08:01:29;;;;;;;29.90;14.95;;;14.50;95.10;;;;;;5071064;28;20024;-70
2022/03/29 08:03:55;;;;;;;26.92;15.68;;;15.00;96.00;;;;;;5071673;28;20036;-73
2022/03/29 08:06:21;;;;;;;18.63;11.90;;;15.00;94.20;;;;;;5068641;28;20040;-73
2022/03/29 08:08:48;;;;;;;24.00;14.05;;;15.10;95.10;;;;;;5087113;28;20119;-70
2022/03/29 08:11:14;;;;;;;23.15;15.07;;;15.20;93.10;;;;;;5076884;28;20035;-68
2022/03/29 08:13:39;;;;;;;26.50;15.38;;;15.20;91.80;;;;;;5065927;28;20029;-66
2022/03/29 08:16:06;;;;;;;34.13;15.90;;;15.10;91.50;;;;;;5068172;28;20414;-67
2022/03/29 08:18:34;;;;;;;27.13;16.55;;;14.90;91.80;;;;;;5068541;28;20604;-67
2022/03/29 08:20:59;;;;;;;22.63;14.18;;;14.80;91.80;;;;;;5070742;28;20512;-66
2022/03/29 08:23:26;;;;;;;24.00;16.05;;;14.70;92.00;;;;;;5070736;28;20032;-67
2022/03/29 08:25:52;;;;;;;22.02;14.73;;;14.70;91.90;;;;;;5086346;28;20102;-67
2022/03/29 08:28:19;;;;;;;24.55;16.23;;;14.80;91.90;;;;;;5069970;28;20477;-67
2022/03/29 08:30:45;;;;;;;26.88;16.88;;;14.90;92.00;;;;;;5069740;28;20462;-67
2022/03/29 08:33:11;;;;;;;26.73;15.93;;;14.90;92.00;;;;;;5070205;28;20115;-68
2022/03/29 08:35:37;;;;;;;21.65;14.55;;;14.70;92.10;;;;;;5085657;28;20142;-65
2022/03/29 08:38:04;;;;;;;29.70;16.30;;;14.80;92.20;;;;;;5086199;28;20381;-66
2022/03/29 08:40:30;;;;;;;26.92;16.17;;;15.00;92.00;;;;;;5086003;28;20115;-66
2022/03/29 08:42:58;;;;;;;21.05;14.68;;;15.10;91.80;;;;;;5071214;28;20048;-66
2022/03/29 08:45:27;;;;;;;27.10;16.23;;;15.10;91.80;;;;;;5095342;28;20046;-66
2022/03/29 08:47:57;;;;;;;28.73;15.38;;;15.20;91.90;;;;;;5093513;28;20103;-67
2022/03/29 08:50:26;;;;;;;27.85;15.93;;;15.20;91.60;;;;;;5092044;28;20024;-65
2022/03/29 08:52:53;;;;;;;23.88;15.77;;;15.00;91.50;;;;;;5111535;28;20031;-66
2022/03/29 08:55:19;;;;;;;32.40;15.60;;;15.10;91.60;;;;;;5092568;28;20038;-74
2022/03/29 08:57:49;;;;;;;26.45;16.10;;;15.30;91.40;;;;;;5092923;28;20065;-67
2022/03/29 09:00:16;;;;;;;25.08;15.20;;;15.30;90.90;;;;;;5127308;28;20050;-67
2022/03/29 09:02:42;;;;;;;27.58;13.95;;;15.20;90.80;;;;;;5126201;28;20028;-66
2022/03/29 09:05:14;;;;;;;25.65;15.90;;;15.30;90.60;;;;;;5111424;28;20020;-65
2022/03/29 09:07:45;;;;;;;19.70;14.73;;;15.40;90.60;;;;;;5110261;28;20462;-67
2022/03/29 09:10:12;;;;;;;20.10;14.60;;;15.60;90.60;;;;;;5111086;28;20103;-64
2022/03/29 09:12:38;;;;;;;21.50;13.82;;;15.70;90.40;;;;;;5091592;28;20121;-66
2022/03/29 09:15:04;;;;;;;21.48;14.75;;;15.70;90.30;;;;;;5111156;28;20140;-66
2022/03/29 09:17:48;;;;;;;25.17;15.73;;;15.80;90.30;;;;;;5110811;28;20023;-65
2022/03/29 09:20:20;;;;;;;21.80;13.40;;;15.90;90.40;;;;;;5115239;28;20023;-66
2022/03/29 09:22:51;;;;;;;22.02;14.13;;;16.10;90.00;;;;;;5115380;28;20020;-66
2022/03/29 09:25:20;;;;;;;22.65;14.25;;;16.30;89.00;;;;;;5115338;28;20086;-66
2022/03/29 09:27:53;;;;;;;24.98;15.15;;;16.70;88.00;;;;;;5096926;28;20031;-65
2022/03/29 09:30:19;;;;;;;19.80;13.23;;;17.00;87.00;;;;;;5115048;28;20027;-65
2022/03/29 09:32:52;;;;;;;21.95;14.98;;;17.20;86.70;;;;;;5096264;28;20073;-65
2022/03/29 09:35:18;;;;;;;19.30;14.05;;;17.30;86.10;;;;;;5096835;28;20062;-64
2022/03/29 09:37:45;;;;;;;22.38;13.73;;;17.20;86.00;;;;;;5106680;28;20425;-69
2022/03/29 09:40:12;;;;;;;27.65;15.00;;;17.30;85.40;;;;;;5092609;28;20107;-66
2022/03/29 09:42:41;;;;;;;25.98;14.32;;;16.80;85.80;;;;;;5092185;28;20024;-65
2022/03/29 09:45:08;;;;;;;23.23;14.40;;;17.00;85.00;;;;;;5094276;28;20047;-66
2022/03/29 09:47:35;;;;;;;21.27;14.40;;;17.10;85.40;;;;;;5092596;28;20035;-65
2022/03/29 09:50:07;;;;;;;24.35;14.63;;;17.10;85.60;;;;;;5094737;28;20497;-66
2022/03/29 09:52:43;;;;;;;22.60;16.05;;;17.20;85.50;;;;;;5093452;28;20431;-66
2022/03/29 09:55:22;;;;;;;23.50;14.27;;;17.30;85.60;;;;;;5092897;28;20484;-66
2022/03/29 09:57:53;;;;;;;25.67;15.93;;;17.50;85.00;;;;;;5092624;28;20097;-66
2022/03/29 10:00:40;;;;;;;23.17;14.95;;;17.30;84.90;;;;;;5093067;28;20027;-66
2022/03/29 10:03:09;;;;;;;23.55;15.25;;;17.50;83.70;;;;;;5094264;28;20354;-65
2022/03/29 10:05:39;;;;;;;18.73;15.20;;;17.40;83.60;;;;;;5093407;28;20032;-65
2022/03/29 10:10:54;;;;;;;21.02;13.93;;;17.70;82.70;;;;;;5094136;28;20051;-65
2022/03/29 10:13:23;;;;;;;20.88;12.57;;;17.50;82.50;;;;;;5092286;28;20119;-65
2022/03/29 10:15:50;;;;;;;21.67;12.43;;;17.40;81.00;;;;;;5093472;28;20207;-65
2022/03/29 10:18:16;;;;;;;18.75;12.05;;;17.60;81.60;;;;;;5094173;28;20035;-65
2022/03/29 10:20:43;;;;;;;18.02;12.68;;;17.80;80.10;;;;;;5092938;28;20029;-66
2022/03/29 10:23:10;;;;;;;19.55;12.20;;;18.10;79.90;;;;;;5093293;28;20112;-65
2022/03/29 10:25:38;;;;;;;18.95;13.13;;;18.10;80.00;;;;;;5091604;28;20068;-66
2022/03/29 10:28:05;;;;;;;18.23;11.40;;;18.10;79.30;;;;;;5093754;28;20028;-66
2022/03/29 10:30:39;;;;;;;19.20;13.00;;;18.30;79.70;;;;;;5092227;28;20028;-68
2022/03/29 10:33:26;;;;;;;17.17;10.98;;;18.30;79.40;;;;;;5075491;28;20032;-66
2022/03/29 10:36:11;;;;;;;19.08;11.82;;;18.50;78.20;;;;;;5093967;28;20050;-66
2022/03/29 10:38:43;;;;;;;16.42;11.80;;;18.40;78.30;;;;;;5091251;28;20472;-65
2022/03/29 10:41:30;;;;;;;24.75;12.35;;;18.60;76.40;;;;;;5075026;28;20063;-66
2022/03/29 10:44:01;;;;;;;21.85;13.68;;;18.70;77.20;;;;;;5092553;28;20035;-65
2022/03/29 10:46:40;;;;;;;15.88;12.68;;;18.70;77.70;;;;;;5092667;28;20028;-66
2022/03/29 10:49:34;;;;;;;20.50;11.27;;;18.10;78.90;;;;;;5074851;28;20039;-66
2022/03/29 10:52:05;;;;;;;16.35;11.07;;;18.70;77.80;;;;;;5075038;28;20024;-65
2022/03/29 10:54:37;;;;;;;21.77;11.52;;;18.60;76.60;;;;;;5074459;28;20538;-67
2022/03/29 10:57:06;;;;;;;18.95;11.60;;;18.80;75.60;;;;;;5075232;28;20024;-66
2022/03/29 10:59:37;;;;;;;15.25;11.13;;;19.00;75.10;;;;;;5092190;28;20050;-66
2022/03/29 11:02:16;;;;;;;19.13;10.15;;;19.00;74.60;;;;;;5092661;28;20440;-66
2022/03/29 11:05:03;;;;;;;13.43;10.93;;;19.00;74.70;;;;;;5074060;28;20024;-65
2022/03/29 11:07:34;;;;;;;12.98;9.75;;;19.20;75.20;;;;;;5073714;28;20126;-66
2022/03/29 11:10:19;;;;;;;13.05;9.27;;;19.50;74.00;;;;;;5092632;28;20100;-66
2022/03/29 11:12:51;;;;;;;16.30;10.27;;;19.80;72.70;;;;;;5073815;28;20020;-65
2022/03/29 11:15:36;;;;;;;14.75;9.68;;;20.00;72.20;;;;;;5090703;28;20031;-66
2022/03/29 11:18:23;;;;;;;16.00;10.65;;;19.70;72.50;;;;;;5092700;28;20068;-67
2022/03/29 11:21:02;;;;;;;13.07;9.68;;;19.60;71.70;;;;;;5092162;28;20024;-67
2022/03/29 11:23:40;;;;;;;13.40;9.35;;;19.60;72.70;;;;;;5073192;28;20028;-68
2022/03/29 11:26:13;;;;;;;16.05;9.68;;;19.80;72.40;;;;;;5091675;28;20032;-69
2022/03/29 11:28:50;;;;;;;12.93;9.55;;;20.10;71.70;;;;;;5086726;28;20065;-66
2022/03/29 11:31:18;;;;;;;12.20;9.15;;;19.10;72.40;;;;;;5094404;28;20016;-66
2022/03/29 11:33:49;;;;;;;14.18;9.75;;;19.30;72.70;;;;;;5112141;28;20035;-66
2022/03/29 11:36:16;;;;;;;13.50;8.85;;;19.40;71.20;;;;;;5091108;28;20034;-66
2022/03/29 11:38:44;;;;;;;11.73;8.18;;;19.80;70.80;;;;;;5093408;28;20030;-66
2022/03/29 11:41:30;;;;;;;11.27;7.28;;;20.00;69.90;;;;;;5112365;28;20016;-70
2022/03/29 11:44:03;;;;;;;11.02;7.45;;;20.10;69.40;;;;;;5093824;28;20042;-66
2022/03/29 11:46:51;;;;;;;15.57;9.55;;;20.20;68.80;;;;;;5111390;28;20469;-75
2022/03/29 11:49:22;;;;;;;13.10;9.95;;;20.70;69.00;;;;;;5094136;28;20032;-67
2022/03/29 11:52:01;;;;;;;;;;;20.70;69.80;;;;;;5111665;28;20035;-66
2022/03/29 11:54:26;;;;;;;12.80;8.40;;;19.70;70.20;;;;;;5111579;28;19911;-67
2022/03/29 11:56:52;;;;;;;16.48;9.45;;;19.50;70.40;;;;;;5092584;28;20020;-66
2022/03/29 11:59:18;;;;;;;8.57;6.65;;;19.60;70.10;;;;;;5111381;28;20024;-66
2022/03/29 12:01:43;;;;;;;11.27;7.65;;;19.50;68.80;;;;;;5111496;28;20035;-67
2022/03/29 12:04:11;;;;;;;18.33;8.27;;;19.90;68.50;;;;;;5112113;28;20088;-67
2022/03/29 12:06:51;;;;;;;15.20;8.55;;;20.20;68.40;;;;;;5094637;28;20127;-68
2022/03/29 12:09:24;;;;;;;13.00;8.70;;;20.20;68.10;;;;;;5095561;28;20035;-67
2022/03/29 12:11:55;;;;;;;12.38;8.48;;;20.10;68.70;;;;;;5098998;28;20367;-67
2022/03/29 12:14:22;;;;;;;10.52;8.23;;;20.50;68.50;;;;;;5095577;28;20131;-70
2022/03/29 12:16:51;;;;;;;15.80;8.57;;;20.30;67.90;;;;;;5093614;28;20044;-68
2022/03/29 12:19:27;;;;;;;7.63;6.45;;;20.10;67.70;;;;;;5094846;28;20333;-67
2022/03/29 12:21:59;;;;;;;8.35;7.07;;;20.10;67.50;;;;;;5112078;28;20495;-67
2022/03/29 12:24:32;;;;;;;11.68;7.80;;;20.40;67.70;;;;;;5112291;28;20032;-69
2022/03/29 12:27:04;;;;;;;12.35;7.75;;;20.50;66.90;;;;;;5113973;28;20114;-66
2022/03/29 12:29:30;;;;;;;12.60;8.00;;;20.80;66.70;;;;;;5094467;28;20059;-66
2022/03/29 12:31:59;;;;;;;12.82;7.95;;;20.80;66.00;;;;;;5093213;28;20024;-67
2022/03/29 12:34:28;;;;;;;13.38;7.47;;;20.50;65.80;;;;;;5094413;28;20206;-67
2022/03/29 12:36:56;;;;;;;13.88;7.85;;;20.60;66.20;;;;;;5112247;28;20027;-67
2022/03/29 12:39:22;;;;;;;14.55;8.07;;;20.50;65.80;;;;;;5118140;27;20388;-66
2022/03/29 12:41:48;;;;;;;13.75;7.50;;;20.40;66.30;;;;;;5115951;27;20448;-67
2022/03/29 12:44:16;;;;;;;11.55;8.20;;;20.40;66.60;;;;;;5102067;27;20074;-72